createdAt,value
2018-02-20T00:01:07.580Z,4.12
2018-02-20T00:03:35.890Z,4.06
2018-02-20T00:06:04.311Z,3.96
2018-02-20T00:08:32.631Z,4.05
2018-02-20T00:11:00.907Z,4.20
2018-02-20T00:13:29.272Z,4.21
2018-02-20T00:15:57.565Z,3.99
2018-02-20T00:18:25.881Z,3.94
2018-02-20T00:20:54.152Z,3.91
2018-02-20T00:23:22.542Z,4.05
2018-02-20T00:25:50.855Z,4.12
2018-02-20T00:28:19.165Z,4.05
2018-02-20T00:30:47.433Z,4.02
2018-02-20T00:33:15.696Z,4.02
2018-02-20T00:35:43.986Z,4.01
2018-02-20T00:38:12.251Z,3.97
2018-02-20T00:40:40.545Z,3.92
2018-02-20T00:43:08.817Z,3.88
2018-02-20T00:45:37.140Z,3.90
2018-02-20T00:48:05.404Z,3.94
2018-02-20T00:50:33.736Z,3.92
2018-02-20T00:53:02.007Z,3.85
2018-02-20T00:55:30.378Z,3.88
2018-02-20T00:57:58.624Z,3.85
2018-02-20T01:00:26.963Z,3.86
2018-02-20T01:02:55.246Z,3.85
2018-02-20T01:05:23.555Z,3.82
2018-02-20T01:07:51.865Z,3.84
2018-02-20T01:10:20.135Z,3.79
2018-02-20T01:12:48.435Z,3.79
2018-02-20T01:15:16.729Z,3.74
2018-02-20T01:17:45.074Z,3.75
2018-02-20T01:20:13.358Z,3.72
2018-02-20T01:22:41.728Z,3.74
2018-02-20T01:25:09.972Z,3.66
2018-02-20T01:27:38.548Z,3.72
2018-02-20T01:30:06.828Z,3.80
2018-02-20T01:32:35.163Z,3.80
2018-02-20T01:35:03.465Z,3.77
2018-02-20T01:37:31.762Z,4.01
2018-02-20T01:40:00.062Z,3.95
2018-02-20T01:42:28.336Z,3.92
2018-02-20T01:44:56.655Z,3.89
2018-02-20T01:47:24.951Z,3.72
2018-02-20T01:49:53.246Z,3.67
2018-02-20T01:52:21.521Z,3.50
2018-02-20T01:54:49.835Z,3.43
2018-02-20T01:57:18.099Z,3.63
2018-02-20T01:59:46.428Z,3.66
2018-02-20T02:02:14.704Z,3.53
2018-02-20T02:04:43.005Z,3.28
2018-02-20T02:07:11.304Z,3.23
2018-02-20T02:09:39.601Z,3.09
2018-02-20T02:12:07.881Z,2.96
2018-02-20T02:14:36.189Z,2.89
2018-02-20T02:17:04.817Z,2.74
2018-02-20T02:19:33.107Z,2.68
2018-02-20T02:22:01.465Z,2.74
2018-02-20T02:24:29.750Z,2.89
2018-02-20T02:26:58.055Z,3.16
2018-02-20T02:29:26.346Z,3.13
2018-02-20T02:31:54.640Z,2.92
2018-02-20T02:34:22.973Z,2.95
2018-02-20T02:36:51.225Z,2.82
2018-02-20T02:39:19.523Z,2.84
2018-02-20T02:41:47.807Z,2.60
2018-02-20T02:44:16.083Z,2.98
2018-02-20T02:46:44.356Z,2.99
2018-02-20T02:49:12.672Z,3.16
2018-02-20T02:51:40.945Z,3.25
2018-02-20T02:54:09.292Z,3.41
2018-02-20T02:56:37.560Z,3.54
2018-02-20T02:59:05.872Z,3.60
2018-02-20T03:01:34.190Z,3.65
2018-02-20T03:04:02.450Z,3.59
2018-02-20T03:06:30.759Z,3.62
2018-02-20T03:08:59.042Z,3.54
2018-02-20T03:11:27.332Z,3.52
2018-02-20T03:13:55.611Z,3.53
2018-02-20T03:16:23.924Z,3.53
2018-02-20T03:18:52.244Z,3.51
2018-02-20T03:21:20.524Z,3.48
2018-02-20T03:23:48.824Z,3.51
2018-02-20T03:26:17.101Z,3.73
2018-02-20T03:28:45.404Z,3.75
2018-02-20T03:31:13.688Z,3.65
2018-02-20T03:33:41.959Z,3.51
2018-02-20T03:36:10.288Z,3.21
2018-02-20T03:38:38.584Z,3.17
2018-02-20T03:41:06.878Z,3.27
2018-02-20T03:43:35.154Z,3.38
2018-02-20T03:46:03.487Z,3.43
2018-02-20T03:48:31.806Z,3.39
2018-02-20T03:51:00.095Z,3.40
2018-02-20T03:53:28.391Z,3.40
2018-02-20T03:55:56.673Z,3.47
2018-02-20T03:58:24.972Z,3.45
2018-02-20T04:00:53.256Z,3.43
2018-02-20T04:03:21.785Z,3.47
2018-02-20T04:05:50.131Z,3.44
2018-02-20T04:08:18.700Z,3.39
2018-02-20T04:10:47.025Z,3.36
2018-02-20T04:13:15.317Z,3.38
2018-02-20T04:15:43.605Z,3.35
2018-02-20T04:18:11.892Z,3.04
2018-02-20T04:20:40.200Z,3.02
2018-02-20T04:23:08.467Z,3.06
2018-02-20T04:25:36.788Z,3.04
2018-02-20T04:28:05.060Z,2.87
2018-02-20T04:30:33.374Z,2.83
2018-02-20T04:33:01.690Z,2.96
2018-02-20T04:35:29.995Z,3.06
2018-02-20T04:37:58.269Z,3.14
2018-02-20T04:40:26.562Z,3.12
2018-02-20T04:42:54.847Z,3.13
2018-02-20T04:45:23.147Z,3.19
2018-02-20T04:47:51.445Z,3.24
2018-02-20T04:50:20.631Z,3.31
2018-02-20T04:52:48.896Z,3.18
2018-02-20T04:55:17.196Z,3.15
2018-02-20T04:57:45.468Z,3.21
2018-02-20T05:00:13.801Z,3.19
2018-02-20T05:02:42.075Z,3.22
2018-02-20T05:05:10.369Z,3.33
2018-02-20T05:07:38.653Z,3.37
2018-02-20T05:10:07.687Z,3.40
2018-02-20T05:12:35.966Z,3.33
2018-02-20T05:15:04.251Z,3.32
2018-02-20T05:17:32.614Z,3.43
2018-02-20T05:20:00.927Z,3.38
2018-02-20T05:22:29.215Z,3.35
2018-02-20T05:24:57.575Z,3.38
2018-02-20T05:27:25.868Z,3.42
2018-02-20T05:29:54.182Z,3.41
2018-02-20T05:32:22.491Z,3.42
2018-02-20T05:34:50.787Z,3.37
2018-02-20T05:37:19.071Z,3.39
2018-02-20T05:39:47.347Z,3.35
2018-02-20T05:42:15.644Z,3.41
2018-02-20T05:44:43.903Z,3.34
2018-02-20T05:47:12.251Z,3.32
2018-02-20T05:49:40.536Z,3.40
2018-02-20T05:52:08.870Z,3.37
2018-02-20T05:54:37.139Z,3.32
2018-02-20T05:57:05.404Z,3.18
2018-02-20T05:59:33.730Z,3.17
2018-02-20T06:02:02.034Z,3.22
2018-02-20T06:04:30.326Z,3.23
2018-02-20T06:06:58.588Z,3.25
2018-02-20T06:09:26.912Z,3.41
2018-02-20T06:11:55.220Z,3.40
2018-02-20T06:14:23.533Z,3.32
2018-02-20T06:16:51.857Z,3.36
2018-02-20T06:19:20.124Z,3.29
2018-02-20T06:21:48.435Z,3.24
2018-02-20T06:24:16.803Z,3.20
2018-02-20T06:26:45.068Z,3.26
2018-02-20T06:29:13.402Z,3.47
2018-02-20T06:31:41.674Z,3.46
2018-02-20T06:34:09.975Z,3.56
2018-02-20T06:36:38.311Z,3.51
2018-02-20T06:39:06.611Z,3.55
2018-02-20T06:41:34.970Z,3.47
2018-02-20T06:44:03.270Z,3.40
2018-02-20T06:46:31.608Z,3.52
2018-02-20T06:48:59.915Z,3.51
2018-02-20T06:51:28.235Z,3.60
2018-02-20T06:53:56.528Z,3.54
2018-02-20T06:56:24.838Z,3.70
2018-02-20T06:58:53.138Z,3.78
2018-02-20T07:01:21.447Z,3.72
2018-02-20T07:03:49.739Z,3.46
2018-02-20T07:06:18.045Z,3.34
2018-02-20T07:08:46.348Z,3.50
2018-02-20T07:11:14.666Z,3.52
2018-02-20T07:13:43.074Z,3.56
2018-02-20T07:16:11.960Z,3.27
2018-02-20T07:18:40.274Z,3.58
2018-02-20T07:21:08.589Z,3.67
2018-02-20T07:23:36.885Z,3.64
2018-02-20T07:26:05.698Z,3.41
2018-02-20T07:28:33.974Z,3.80
2018-02-20T07:31:02.263Z,3.83
2018-02-20T07:33:30.544Z,3.76
2018-02-20T07:35:58.859Z,3.81
2018-02-20T07:38:27.190Z,3.84
2018-02-20T07:40:55.483Z,3.85
2018-02-20T07:43:23.779Z,4.00
2018-02-20T07:45:52.196Z,3.95
2018-02-20T07:48:20.489Z,4.01
2018-02-20T07:50:48.834Z,4.05
2018-02-20T07:53:17.197Z,4.12
2018-02-20T07:55:45.550Z,4.07
2018-02-20T07:58:13.866Z,4.12
2018-02-20T08:00:42.762Z,4.22
2018-02-20T08:03:11.108Z,4.17
2018-02-20T08:05:39.994Z,4.20
2018-02-20T08:08:08.403Z,4.34
2018-02-20T08:10:36.726Z,4.44
2018-02-20T08:13:05.798Z,4.33
2018-02-20T08:15:34.080Z,4.39
2018-02-20T08:18:02.437Z,4.39
2018-02-20T08:20:30.860Z,4.29
2018-02-20T08:22:59.111Z,4.43
2018-02-20T08:25:27.437Z,4.49
2018-02-20T08:27:55.727Z,4.47
2018-02-20T08:30:24.040Z,4.60
2018-02-20T08:32:52.351Z,4.60
2018-02-20T08:35:20.682Z,4.53
2018-02-20T08:37:48.961Z,4.51
2018-02-20T08:40:17.336Z,4.52
2018-02-20T08:42:45.614Z,4.59
2018-02-20T08:45:13.958Z,4.92
2018-02-20T08:47:42.259Z,4.84
2018-02-20T08:50:10.560Z,4.90
2018-02-20T08:52:38.882Z,4.74
2018-02-20T08:55:07.162Z,4.72
2018-02-20T08:57:35.483Z,4.55
2018-02-20T09:00:03.779Z,4.63
2018-02-20T09:02:32.113Z,4.80
2018-02-20T09:05:00.376Z,4.77
2018-02-20T09:07:29.444Z,4.63
2018-02-20T09:09:57.772Z,4.38
2018-02-20T09:12:26.048Z,4.69
2018-02-20T09:14:54.678Z,4.91
2018-02-20T09:17:23.022Z,5.07
2018-02-20T09:19:51.366Z,4.87
2018-02-20T09:22:19.636Z,5.07
2018-02-20T09:24:47.979Z,5.22
2018-02-20T09:27:16.294Z,4.97
2018-02-20T09:29:44.584Z,5.27
2018-02-20T09:32:12.888Z,5.28
2018-02-20T09:34:41.220Z,5.39
2018-02-20T09:37:09.527Z,5.35
2018-02-20T09:39:37.930Z,5.38
2018-02-20T09:42:07.380Z,5.36
2018-02-20T09:44:35.685Z,5.36
2018-02-20T09:47:04.222Z,5.25
2018-02-20T09:49:32.564Z,4.95
2018-02-20T09:52:00.916Z,4.73
2018-02-20T09:54:29.233Z,4.87
2018-02-20T09:56:57.564Z,4.87
2018-02-20T09:59:25.889Z,4.73
2018-02-20T10:01:54.196Z,4.68
2018-02-20T10:04:22.564Z,4.65
2018-02-20T10:06:51.110Z,4.95
2018-02-20T10:09:20.038Z,5.05
2018-02-20T10:11:48.399Z,5.14
2018-02-20T10:14:16.729Z,5.29
2018-02-20T10:16:45.040Z,5.65
2018-02-20T10:19:13.300Z,5.51
2018-02-20T10:21:41.646Z,5.42
2018-02-20T10:24:09.917Z,5.22
2018-02-20T10:26:38.216Z,5.23
2018-02-20T10:29:06.494Z,5.54
2018-02-20T10:31:34.820Z,5.68
2018-02-20T10:34:03.093Z,5.80
2018-02-20T10:36:31.500Z,5.86
2018-02-20T10:38:59.723Z,6.09
2018-02-20T10:41:28.053Z,6.33
2018-02-20T10:43:56.437Z,6.54
2018-02-20T10:46:24.768Z,6.68
2018-02-20T10:48:53.160Z,6.73
2018-02-20T10:51:21.435Z,6.75
2018-02-20T10:53:49.760Z,6.80
2018-02-20T10:56:18.061Z,6.69
2018-02-20T10:58:46.383Z,6.84
2018-02-20T11:01:14.698Z,6.91
2018-02-20T11:03:43.088Z,7.10
2018-02-20T11:06:11.410Z,7.08
2018-02-20T11:08:39.848Z,7.03
2018-02-20T11:11:08.156Z,6.54
2018-02-20T11:13:36.489Z,5.72
2018-02-20T11:16:05.618Z,5.46
2018-02-20T11:18:33.963Z,5.44
2018-02-20T11:21:02.308Z,5.49
2018-02-20T11:23:30.589Z,5.75
2018-02-20T11:25:58.905Z,6.07
2018-02-20T11:28:27.225Z,6.29
2018-02-20T11:30:55.579Z,5.84
2018-02-20T11:33:23.899Z,5.64
2018-02-20T11:35:52.224Z,5.68
2018-02-20T11:38:20.534Z,5.90
2018-02-20T11:40:48.873Z,5.64
2018-02-20T11:43:17.186Z,5.61
2018-02-20T11:45:45.464Z,5.73
2018-02-20T11:48:13.884Z,6.09
2018-02-20T11:50:42.181Z,6.42
2018-02-20T11:53:10.544Z,6.53
2018-02-20T11:55:38.864Z,6.29
2018-02-20T11:58:07.154Z,6.36
2018-02-20T12:00:35.425Z,6.64
2018-02-20T12:03:03.790Z,6.67
2018-02-20T12:05:32.061Z,6.13
2018-02-20T12:08:00.412Z,6.18
2018-02-20T12:10:28.709Z,6.36
2018-02-20T12:12:57.028Z,6.54
2018-02-20T12:15:25.391Z,6.95
2018-02-20T12:17:53.646Z,7.08
2018-02-20T12:20:21.990Z,6.51
2018-02-20T12:22:50.343Z,6.24
2018-02-20T12:25:18.663Z,6.56
2018-02-20T12:27:47.000Z,6.80
2018-02-20T12:30:15.427Z,6.97
2018-02-20T12:32:43.726Z,7.21
2018-02-20T12:35:12.363Z,7.37
2018-02-20T12:37:40.758Z,7.56
2018-02-20T12:40:09.071Z,7.86
2018-02-20T12:42:38.028Z,8.17
2018-02-20T12:45:06.293Z,8.23
2018-02-20T12:47:34.614Z,8.29
2018-02-20T12:50:02.960Z,8.06
2018-02-20T12:52:31.325Z,7.93
2018-02-20T12:54:59.641Z,7.86
2018-02-20T12:57:28.008Z,7.28
2018-02-20T12:59:56.375Z,6.82
2018-02-20T13:02:24.727Z,6.68
2018-02-20T13:04:53.004Z,7.00
2018-02-20T13:07:22.257Z,7.42
2018-02-20T13:09:50.524Z,7.35
2018-02-20T13:12:18.809Z,7.03
2018-02-20T13:14:47.108Z,7.11
2018-02-20T13:17:15.425Z,7.33
2018-02-20T13:19:43.867Z,7.75
2018-02-20T13:22:12.284Z,7.94
2018-02-20T13:24:40.596Z,7.99
2018-02-20T13:27:08.970Z,7.75
2018-02-20T13:29:37.281Z,7.85
2018-02-20T13:32:05.819Z,7.35
2018-02-20T13:34:34.159Z,7.05
2018-02-20T13:37:02.454Z,6.84
2018-02-20T13:39:30.735Z,6.82
2018-02-20T13:41:59.065Z,6.63
2018-02-20T13:44:27.399Z,6.48
2018-02-20T13:46:55.727Z,6.36
2018-02-20T13:49:23.998Z,6.63
2018-02-20T13:51:52.392Z,6.63
2018-02-20T13:54:20.684Z,6.68
2018-02-20T13:56:49.049Z,7.03
2018-02-20T13:59:17.343Z,7.61
2018-02-20T14:01:45.689Z,7.94
2018-02-20T14:04:13.985Z,8.44
2018-02-20T14:06:42.283Z,9.07
2018-02-20T14:09:10.651Z,8.59
2018-02-20T14:11:39.116Z,8.60
2018-02-20T14:14:07.514Z,9.16
2018-02-20T14:16:35.861Z,9.35
2018-02-20T14:19:04.334Z,9.37
2018-02-20T14:21:32.784Z,8.87
2018-02-20T14:24:02.125Z,8.67
2018-02-20T14:26:30.513Z,8.29
2018-02-20T14:28:59.349Z,8.24
2018-02-20T14:31:27.638Z,8.08
2018-02-20T14:33:56.288Z,8.28
2018-02-20T14:36:24.629Z,8.68
2018-02-20T14:38:53.006Z,8.74
2018-02-20T14:41:21.343Z,8.65
2018-02-20T14:43:49.644Z,8.25
2018-02-20T14:46:17.959Z,8.07
2018-02-20T14:48:46.280Z,8.19
2018-02-20T14:51:14.761Z,8.35
2018-02-20T14:53:43.093Z,8.30
2018-02-20T14:56:12.275Z,8.56
2018-02-20T14:58:40.594Z,8.60
2018-02-20T15:01:08.897Z,8.45
2018-02-20T15:03:37.607Z,8.35
2018-02-20T15:06:05.906Z,8.26
2018-02-20T15:08:34.280Z,8.18
2018-02-20T15:11:02.582Z,8.11
2018-02-20T15:13:30.962Z,7.90
2018-02-20T15:15:59.237Z,8.02
2018-02-20T15:18:27.560Z,8.01
2018-02-20T15:20:55.851Z,8.07
2018-02-20T15:23:24.226Z,7.99
2018-02-20T15:25:52.566Z,7.88
2018-02-20T15:28:20.924Z,7.89
2018-02-20T15:30:49.263Z,7.80
2018-02-20T15:33:17.592Z,7.88
2018-02-20T15:35:45.978Z,7.94
2018-02-20T15:38:14.830Z,7.94
2018-02-20T15:40:44.129Z,7.63
2018-02-20T15:43:12.452Z,7.67
2018-02-20T15:45:40.849Z,7.44
2018-02-20T15:48:09.475Z,7.52
2018-02-20T15:50:37.776Z,7.38
2018-02-20T15:53:06.100Z,7.42
2018-02-20T15:55:35.243Z,7.50
2018-02-20T15:58:03.595Z,7.54
2018-02-20T16:00:32.728Z,7.57
2018-02-20T16:03:01.061Z,7.62
2018-02-20T16:05:29.367Z,7.60
2018-02-20T16:07:57.728Z,7.54
2018-02-20T16:10:25.992Z,7.48
2018-02-20T16:12:54.411Z,7.44
2018-02-20T16:15:22.752Z,7.43
2018-02-20T16:17:51.041Z,7.43
2018-02-20T16:20:19.814Z,7.48
2018-02-20T16:22:48.115Z,7.54
2018-02-20T16:25:16.437Z,7.43
2018-02-20T16:27:44.816Z,7.39
2018-02-20T16:30:14.174Z,7.37
2018-02-20T16:32:42.530Z,7.26
2018-02-20T16:35:11.958Z,7.19
2018-02-20T16:37:40.306Z,7.15
2018-02-20T16:40:08.616Z,7.00
2018-02-20T16:42:36.910Z,6.82
2018-02-20T16:45:05.377Z,6.79
2018-02-20T16:47:33.749Z,6.44
2018-02-20T16:50:02.105Z,6.39
2018-02-20T16:52:30.391Z,6.38
2018-02-20T16:54:58.901Z,6.42
2018-02-20T16:57:28.167Z,6.60
2018-02-20T16:59:57.388Z,6.67
2018-02-20T17:02:25.864Z,6.80
2018-02-20T17:04:54.185Z,6.96
2018-02-20T17:07:22.521Z,6.91
2018-02-20T17:09:50.845Z,6.90
2018-02-20T17:12:19.157Z,6.83
2018-02-20T17:14:47.533Z,6.94
2018-02-20T17:17:15.822Z,7.00
2018-02-20T17:19:44.165Z,6.93
2018-02-20T17:22:12.469Z,7.03
2018-02-20T17:24:40.849Z,6.95
2018-02-20T17:27:09.139Z,6.87
2018-02-20T17:29:37.489Z,6.68
2018-02-20T17:32:05.824Z,6.82
2018-02-20T17:34:34.152Z,6.81
2018-02-20T17:37:02.477Z,6.77
2018-02-20T17:39:30.813Z,6.82
2018-02-20T17:41:59.096Z,6.83
2018-02-20T17:44:27.505Z,6.72
2018-02-20T17:46:55.963Z,6.75
2018-02-20T17:49:24.281Z,6.84
2018-02-20T17:51:52.596Z,6.85
2018-02-20T17:54:20.884Z,6.85
2018-02-20T17:56:49.240Z,6.86
2018-02-20T17:59:17.542Z,6.82
2018-02-20T18:01:45.901Z,6.71
2018-02-20T18:04:14.184Z,6.60
2018-02-20T18:06:42.473Z,6.68
2018-02-20T18:09:10.797Z,6.70
2018-02-20T18:11:39.102Z,6.57
2018-02-20T18:14:07.585Z,6.51
2018-02-20T18:16:35.803Z,6.53
2018-02-20T18:19:04.772Z,6.54
2018-02-20T18:21:33.039Z,6.59
2018-02-20T18:24:01.441Z,6.63
2018-02-20T18:26:29.752Z,6.63
2018-02-20T18:28:58.075Z,6.58
2018-02-20T18:31:26.392Z,6.61
2018-02-20T18:33:54.740Z,6.56
2018-02-20T18:36:23.036Z,6.51
2018-02-20T18:38:51.344Z,6.30
2018-02-20T18:41:19.679Z,6.37
2018-02-20T18:43:47.956Z,6.30
2018-02-20T18:46:16.268Z,6.27
2018-02-20T18:48:44.558Z,6.15
2018-02-20T18:51:12.925Z,6.04
2018-02-20T18:53:41.247Z,6.02
2018-02-20T18:56:09.526Z,6.09
2018-02-20T18:58:37.917Z,5.93
2018-02-20T19:01:06.197Z,5.90
2018-02-20T19:03:34.794Z,5.73
2018-02-20T19:06:03.106Z,5.79
2018-02-20T19:08:31.473Z,5.84
2018-02-20T19:10:59.784Z,5.98
2018-02-20T19:13:28.230Z,6.02
2018-02-20T19:15:56.649Z,5.98
2018-02-20T19:18:24.984Z,6.05
2018-02-20T19:20:53.289Z,6.08
2018-02-20T19:23:21.611Z,5.79
2018-02-20T19:25:49.965Z,5.86
2018-02-20T19:28:18.240Z,5.84
2018-02-20T19:30:46.910Z,5.82
2018-02-20T19:33:15.192Z,5.73
2018-02-20T19:35:43.539Z,5.62
2018-02-20T19:38:11.829Z,5.54
2018-02-20T19:40:40.135Z,5.54
2018-02-20T19:43:08.415Z,5.44
2018-02-20T19:45:36.744Z,5.31
2018-02-20T19:48:05.880Z,5.31
2018-02-20T19:50:34.174Z,5.31
2018-02-20T19:53:02.493Z,5.33
2018-02-20T19:55:30.786Z,5.28
2018-02-20T19:57:59.103Z,5.19
2018-02-20T20:00:27.428Z,5.21
2018-02-20T20:02:55.700Z,5.28
2018-02-20T20:05:24.012Z,5.24
2018-02-20T20:07:52.277Z,4.98
2018-02-20T20:10:20.569Z,4.94
2018-02-20T20:12:48.937Z,4.99
2018-02-20T20:15:17.147Z,5.09
2018-02-20T20:17:45.413Z,4.88
2018-02-20T20:20:13.812Z,4.81
2018-02-20T20:22:42.137Z,4.46
2018-02-20T20:25:12.952Z,4.21
2018-02-20T20:27:41.250Z,4.25
2018-02-20T20:30:09.586Z,4.47
2018-02-20T20:32:37.863Z,4.56
2018-02-20T20:35:06.127Z,4.64
2018-02-20T20:37:35.228Z,4.65
2018-02-20T20:40:03.504Z,4.62
2018-02-20T20:42:31.820Z,4.70
2018-02-20T20:45:00.100Z,4.55
2018-02-20T20:47:28.434Z,4.43
2018-02-20T20:49:56.748Z,4.51
2018-02-20T20:52:25.025Z,4.36
2018-02-20T20:54:53.319Z,4.44
2018-02-20T20:57:21.589Z,4.22
2018-02-20T20:59:49.908Z,4.21
2018-02-20T21:02:18.221Z,4.15
2018-02-20T21:04:46.493Z,4.33
2018-02-20T21:07:14.787Z,4.28
2018-02-20T21:09:43.049Z,4.20
2018-02-20T21:12:11.384Z,4.36
2018-02-20T21:17:14.147Z,4.29
2018-02-20T21:19:42.543Z,4.22
2018-02-20T21:22:10.880Z,4.07
2018-02-20T21:24:39.167Z,4.05
2018-02-20T21:27:08.163Z,3.93
2018-02-20T21:29:36.438Z,3.85
2018-02-20T21:32:04.930Z,3.78
2018-02-20T21:34:33.216Z,3.72
2018-02-20T21:37:01.484Z,3.73
2018-02-20T21:39:29.826Z,3.82
2018-02-20T21:41:58.111Z,3.97
2018-02-20T21:44:26.403Z,4.17
2018-02-20T21:46:54.681Z,4.36
2018-02-20T21:49:23.064Z,4.54
2018-02-20T21:51:51.297Z,4.58
2018-02-20T21:54:19.634Z,4.76
2018-02-20T21:56:47.906Z,4.87
2018-02-20T21:59:16.184Z,4.80
2018-02-20T22:01:44.528Z,4.70
2018-02-20T22:04:12.787Z,4.77
2018-02-20T22:06:41.090Z,4.78
2018-02-20T22:09:09.387Z,4.80
2018-02-20T22:11:37.674Z,4.90
2018-02-20T22:14:05.934Z,4.86
2018-02-20T22:16:34.235Z,4.83
2018-02-20T22:19:02.490Z,4.81
2018-02-20T22:21:30.777Z,4.83
2018-02-20T22:23:59.088Z,4.83
2018-02-20T22:26:27.388Z,4.57
2018-02-20T22:28:55.702Z,4.42
2018-02-20T22:31:23.980Z,4.47
2018-02-20T22:33:52.276Z,4.52
2018-02-20T22:36:20.541Z,4.41
2018-02-20T22:38:48.841Z,4.20
2018-02-20T22:41:17.119Z,4.14
2018-02-20T22:43:45.413Z,3.96
2018-02-20T22:46:13.697Z,3.97
2018-02-20T22:48:41.995Z,4.01
2018-02-20T22:51:10.296Z,4.04
2018-02-20T22:53:38.605Z,4.24
2018-02-20T22:56:06.876Z,4.50
2018-02-20T22:58:35.184Z,4.57
2018-02-20T23:01:03.492Z,4.66
2018-02-20T23:03:31.779Z,4.56
2018-02-20T23:06:00.088Z,4.35
2018-02-20T23:08:28.376Z,4.20
2018-02-20T23:10:56.695Z,4.25
2018-02-20T23:13:24.964Z,4.37
2018-02-20T23:15:54.084Z,4.48
2018-02-20T23:18:22.340Z,4.58
2018-02-20T23:20:50.644Z,4.61
2018-02-20T23:23:18.920Z,4.53
2018-02-20T23:25:47.244Z,4.47
2018-02-20T23:28:15.528Z,4.56
2018-02-20T23:30:43.803Z,4.61
2018-02-20T23:33:12.108Z,4.65
2018-02-20T23:35:40.397Z,4.61
2018-02-20T23:38:08.711Z,4.63
2018-02-20T23:40:37.000Z,4.59
2018-02-20T23:43:05.301Z,4.41
2018-02-20T23:45:34.172Z,4.41
2018-02-20T23:48:02.469Z,4.44
2018-02-20T23:50:30.756Z,4.47
2018-02-20T23:52:59.061Z,4.45
2018-02-20T23:55:27.347Z,4.47
2018-02-20T23:57:55.689Z,4.30
